NEODyS-2

Near Earth Objects - Dynamic Site
NEODyS ∴ Observatories ∴ Site 691 ∴ Obs & residuals
Contact »
691  ▹ 
OBSERVATIONS AND RESIDUALS

691-Steward Observatory, Kitt Peak-Spacewatch

Detections | Residuals | Detections & Residuals

[1-200] [201-400] [401-600] [601-800] [801-1000] [1001-1200] [1201-1400] [1401-1600] [1601-1800] [1801-2000] [2001-2200] [2201-2400] [2401-2600] [2601-2800] [2801-3000] [3001-3200] [3201-3400] [3401-3600] [3601-3800] [3801-4000] [4001-4200] [4201-4400] [4401-4600] [4601-4800] [4801-5000] [5001-5200] [5201-5400] [5401-5600] [5601-5800] [5801-6000] [6001-6200] [6201-6400] [6401-6600] [6601-6800] [6801-7000] [7001-7200] [7201-7400] [7401-7600] [7601-7800] [7801-8000] [8001-8200] [8201-8400] [8401-8600] [8601-8800] [8801-9000] [9001-9200] [9201-9400] [9401-9600] [9601-9800] [9801-10000] [10001-10200] [10201-10400] [10401-10600] [10601-10800] [10801-11000] [11001-11200] [11201-11400] [11401-11600] [11601-11800] [11801-12000] [12001-12200] [12201-12400] [12401-12600] [12601-12800] [12801-13000] [13001-13200] [13201-13400] [13401-13600] [13601-13800] [13801-14000] [14001-14200] [14201-14400] [14401-14600] [14601-14800] [14801-15000] [15001-15200] [15201-15400] [15401-15600] [15601-15800] [15801-16000] [16001-16200] [16201-16400] [16401-16600] [16601-16800] [16801-17000] [17001-17200] [17201-17400] [17401-17600] [17601-17800] [17801-18000] [18001-18200] [18201-18400] [18401-18600] [18601-18800] [18801-19000] [19001-19200] [19201-19400] [19401-19600] [19601-19800] [19801-20000] [20001-20200] [20201-20400] [20401-20600] [20601-20800] [20801-21000] [21001-21200] [21201-21400] [21401-21600] [21601-21800] [21801-22000] [22001-22200] [22201-22400] [22401-22600] [22601-22800] [22801-23000] [23001-23200] [23201-23400] [23401-23600] [23601-23800] [23801-24000] [24001-24200] [24201-24400] [24401-24600] [24601-24800] [24801-25000] [25001-25200] [25201-25400] [25401-25600] [25601-25800] [25801-26000] [26001-26200] [26201-26400] [26401-26600] [26601-26800] [26801-27000] [27001-27200] [27201-27400] [27401-27600] [27601-27800] [27801-28000] [28001-28200] [28201-28400] [28401-28600] [28601-28800] [28801-29000] [29001-29200] [29201-29400] [29401-29600] [29601-29800] [29801-30000] [30001-30200] [30201-30400] [30401-30600] [30601-30800] [30801-31000] [31001-31200] [31201-31400] [31401-31600] [31601-31800] [31801-32000] [32001-32200] [32201-32400] [32401-32600] [32601-32800] [32801-33000] [33001-33200] [33201-33400] [33401-33600] [33601-33800] [33801-34000] [34001-34200] [34201-34400] [34401-34600] [34601-34800] [34801-35000] [35001-35200] [35201-35400] [35401-35600] [35601-35800] [35801-36000] [36001-36200] [36201-36400] [36401-36600] [36601-36800] [36801-37000] [37001-37200] [37201-37400] [37401-37600] [37601-37800] [37801-38000] [38001-38200] [38201-38400] [38401-38600] [38601-38800] [38801-39000] [39001-39200] [39201-39400] [39401-39600] [39601-39800] [39801-40000] [40001-40200] [40201-40400] [40401-40600] [40601-40800] [40801-41000] [41001-41200] [41201-41400] [41401-41600] [41601-41800] [41801-42000] [42001-42200] [42201-42400] [42401-42600] [42601-42800] [42801-43000] [43001-43200] [43201-43400] [43401-43600] [43601-43800] [43801-44000] [44001-44200] [44201-44400] [44401-44600] [44601-44800] [44801-45000] [45001-45200] [45201-45400] [45401-45600] [45601-45800] [45801-46000] [46001-46200] [46201-46400] [46401-46600] [46601-46800] [46801-47000] [47001-47200] [47201-47400] [47401-47600] [47601-47800] [47801-48000] [48001-48200] [48201-48400] [48401-48600] [48601-48800] [48801-49000] [49001-49200] [49201-49400] [49401-49600] [49601-49800] [49801-50000] [50001-50200] [50201-50400] [50401-50600] [50601-50741]

Designation T Tech N Date Right Ascension Declination Apparent Magnitude Star Catalog Site code χ Used A Used M
yr-mo-day precision hr:min:sec precision rms F bias residual deg min sec precision rms F bias residual mag/col rms residual
2018LM4 O C K 2018-07-01.40025 1.000E-05 00:50:52.650 1.500E-01 0.500 F -0.083 0.169 +08° 29' 46.60" 1.000E-01 0.500 F 0.349 0.386 19.7 R 0.70 -0.02 o 691 0.84 Yes Yes
2018LM4 O C K 2018-07-01.40966 1.000E-05 00:50:55.360 1.500E-01 0.500 F -0.083 -0.466 +08° 29' 33.30" 1.000E-01 0.500 F 0.349 -0.159 19.6 R 0.70 -0.12 o 691 0.99 Yes Yes
2018LM4 O C K 2018-07-01.41905 1.000E-05 00:50:58.130 1.500E-01 0.500 F -0.083 -0.090 +08° 29' 20.90" 1.000E-01 0.500 F 0.349 0.177 19.7 R 0.70 -0.02 o 691 0.40 Yes Yes
2018JD5 O C K 2018-07-01.43053 1.000E-05 01:22:44.070 1.500E-01 0.500 F -0.269 0.100 +13° 16' 57.00" 1.000E-01 0.500 F 0.296 0.070 20.7 R 0.70 0.61 o 691 0.25 Yes Yes
2018JD5 O C K 2018-07-01.44253 1.000E-05 01:22:46.390 1.500E-01 0.500 F -0.269 -0.081 +13° 17' 13.90" 1.000E-01 0.500 F 0.296 0.022 20.3 R 0.70 0.21 o 691 0.17 Yes Yes
2018JD5 O C K 2018-07-01.45452 1.000E-05 01:22:48.720 1.500E-01 0.500 F -0.269 -0.031 +13° 17' 30.90" 1.000E-01 0.500 F 0.296 0.101 20.7 R 0.70 0.61 o 691 0.21 Yes Yes
2018LB1 O C K 2018-07-02.16497 1.000E-05 14:17:13.160 1.500E-01 0.500 F 0.320 -0.397 -15° 56' 32.80" 1.000E-01 0.500 F 0.136 0.060 21.7 R 0.70 0.28 o 691 0.80 Yes Yes
2018LB1 O C K 2018-07-02.17589 1.000E-05 14:17:12.900 1.500E-01 0.500 F 0.320 0.031 -15° 56' 30.60" 1.000E-01 0.500 F 0.136 0.078 21.4 R 0.70 -0.02 o 691 0.17 Yes Yes
2018LB1 O C K 2018-07-02.18680 1.000E-05 14:17:12.590 1.500E-01 0.500 F 0.320 -0.286 -15° 56' 28.30" 1.000E-01 0.500 F 0.136 0.187 21.3 R 0.70 -0.12 o 691 0.69 Yes Yes
2018LF5 O C 2018-07-02.20200 1.000E-05 15:12:16.730 1.500E-01 0.500 F 0.259 -0.170 +26° 00' 28.90" 1.000E-01 0.500 F 0.231 -0.018 18.4 R 0.70 0.55 o 691 0.34 Yes Yes
2018LF5 O C 2018-07-02.20587 1.000E-05 15:12:15.160 1.500E-01 0.500 F 0.259 -0.147 +25° 59' 24.40" 1.000E-01 0.500 F 0.231 0.000 18.5 R 0.70 0.65 o 691 0.30 Yes Yes
2018LF5 O C 2018-07-02.20973 1.000E-05 15:12:13.610 1.500E-01 0.500 F 0.259 0.085 +25° 58' 20.00" 1.000E-01 0.500 F 0.231 -0.002 18.4 R 0.70 0.55 o 691 0.17 Yes Yes
2014TW57 O C K 2018-07-02.23692 1.000E-05 16:54:08.060 1.500E-01 0.500 F -0.051 0.600 -20° 08' 02.50" 1.000E-01 0.500 F 0.121 0.127 21.9 R 0.70 0.34 o 691 1.40 Yes Yes
2014TW57 O C K 2018-07-02.26012 1.000E-05 16:54:06.400 1.500E-01 0.500 F -0.051 0.716 -20° 07' 57.50" 1.000E-01 0.500 F 0.121 -0.070 o 691 1.64 Yes No
2018LH5 O C 2018-07-02.28272 1.000E-05 17:23:25.060 1.500E-01 0.500 F 0.066 -0.084 -08° 56' 16.70" 1.000E-01 0.500 F 0.199 0.110 19.2 R 0.70 0.45 o 691 0.29 Yes Yes
2018LH5 O C 2018-07-02.28570 1.000E-05 17:23:23.250 1.500E-01 0.500 F 0.066 0.097 -08° 55' 55.60" 1.000E-01 0.500 F 0.199 -0.008 19.4 R 0.70 0.65 o 691 0.20 Yes Yes
2018LH5 O C 2018-07-02.28768 1.000E-05 17:23:22.020 1.500E-01 0.500 F 0.066 -0.192 -08° 55' 41.40" 1.000E-01 0.500 F 0.199 0.093 19.3 R 0.70 0.55 o 691 0.45 Yes Yes
2018MJ7 O C K 2018-07-02.31637 1.000E-05 17:50:42.080 1.500E-01 0.500 F 0.074 -0.140 +12° 23' 38.30" 1.000E-01 0.500 F 0.186 0.049 19.7 R 0.70 0.02 o 691 0.30 Yes Yes
2018MJ7 O C K 2018-07-02.33247 1.000E-05 17:50:40.140 1.500E-01 0.500 F 0.074 0.063 +12° 21' 18.10" 1.000E-01 0.500 F 0.186 0.234 19.9 R 0.70 0.22 o 691 0.50 Yes Yes
2018MJ7 O C K 2018-07-02.34855 1.000E-05 17:50:38.230 1.500E-01 0.500 F 0.074 0.371 +12° 18' 58.00" 1.000E-01 0.500 F 0.186 0.270 20.0 R 0.70 0.32 o 691 0.94 Yes Yes
2018FS3 O C K 2018-07-02.37303 1.000E-05 00:16:38.870 1.500E-01 0.500 F -0.115 -0.088 +29° 01' 10.40" 1.000E-01 0.500 F 0.266 -0.059 20.6 R 0.70 0.22 o 691 0.21 Yes Yes
2018FS3 O C K 2018-07-02.39659 1.000E-05 00:16:38.610 1.500E-01 0.500 F -0.115 -0.687 +29° 00' 26.60" 1.000E-01 0.500 F 0.266 -0.137 20.6 R 0.70 0.22 o 691 1.41 Yes Yes
2018FS3 O C K 2018-07-02.42016 1.000E-05 00:16:38.330 1.500E-01 0.500 F -0.115 -0.821 +28° 59' 42.20" 1.000E-01 0.500 F 0.266 -0.563 20.7 R 0.70 0.32 o 691 2.00 Yes Yes
2017DO36 O C K 2018-07-02.44673 1.000E-05 00:31:19.980 1.500E-01 0.500 F -0.191 0.155 +10° 10' 11.20" 1.000E-01 0.500 F 0.220 0.030 19.5 R 0.70 0.26 o 691 0.32 Yes Yes
2017DO36 O C K 2018-07-02.45288 1.000E-05 00:31:21.470 1.500E-01 0.500 F -0.191 0.127 +10° 09' 55.40" 1.000E-01 0.500 F 0.220 -0.058 19.5 R 0.70 0.26 o 691 0.29 Yes Yes
2017DO36 O C K 2018-07-02.45904 1.000E-05 00:31:22.980 1.500E-01 0.500 F -0.191 0.364 +10° 09' 40.00" 1.000E-01 0.500 F 0.220 0.286 19.4 R 0.70 0.16 o 691 0.93 Yes Yes
2018LU5 O C K 2018-07-03.20603 1.000E-05 17:15:47.700 1.500E-01 0.500 F 0.066 0.037 -08° 12' 54.00" 1.000E-01 0.500 F 0.333 -0.013 22.0 R 0.70 0.47 o 691 0.09 Yes Yes
2018LU5 O C K 2018-07-03.21533 1.000E-05 17:15:47.890 1.500E-01 0.500 F 0.077 0.078 -08° 13' 25.40" 1.000E-01 0.500 F 0.172 -0.155 21.2 R 0.70 -0.33 o 691 0.38 Yes Yes
2018LU5 O C K 2018-07-03.22464 1.000E-05 17:15:48.030 1.500E-01 0.500 F 0.077 -0.594 -08° 13' 55.80" 1.000E-01 0.500 F 0.172 0.556 22.0 R 0.70 0.47 o 691 1.81 Yes Yes
2018LP2 O C K 2018-07-03.23510 1.000E-05 15:42:03.000 1.500E-01 0.500 F 0.110 -0.644 -21° 45' 08.40" 1.000E-01 0.500 F -0.021 0.674 21.3 R 0.70 -0.20 o 691 1.88 Yes Yes
2018LP2 O C K 2018-07-03.24588 1.000E-05 15:42:01.910 1.500E-01 0.500 F 0.110 0.250 -21° 45' 20.30" 1.000E-01 0.500 F -0.021 0.198 22.1 R 0.70 0.60 o 691 0.65 Yes Yes
2018LP2 O C K 2018-07-03.25666 1.000E-05 15:42:00.700 1.500E-01 0.500 F 0.110 -0.554 -21° 45' 30.90" 1.000E-01 0.500 F -0.021 1.003 22.0 R 0.70 0.50 o 691 2.32 Yes Yes
1999RM28 O C 2018-07-03.26843 1.000E-05 17:10:40.080 1.500E-01 0.500 F 0.072 -0.001 +15° 45' 10.60" 1.000E-01 0.500 F 0.213 -0.275 o 691 0.55 Yes No
1999RM28 O C 2018-07-03.27421 1.000E-05 17:10:39.660 1.500E-01 0.500 F 0.072 -0.452 +15° 45' 06.70" 1.000E-01 0.500 F 0.213 0.090 o 691 0.92 Yes No
1999RM28 O C 2018-07-03.27998 1.000E-05 17:10:39.310 1.500E-01 0.500 F 0.072 0.097 +15° 45' 02.10" 1.000E-01 0.500 F 0.213 -0.249 o 691 0.54 Yes No
2018CK14 O C K 2018-07-03.40363 1.000E-05 18:31:28.370 1.500E-01 0.500 F -0.037 0.197 +13° 03' 29.80" 1.000E-01 0.500 F 0.186 0.126 20.2 R 0.70 0.29 o 691 0.47 Yes Yes
2018CK14 O C K 2018-07-03.40994 1.000E-05 18:31:28.020 1.500E-01 0.500 F -0.037 0.042 +13° 03' 15.30" 1.000E-01 0.500 F 0.186 -0.057 20.0 R 0.70 0.09 o 691 0.14 Yes Yes
2018ME7 O C K 2018-07-03.41827 1.000E-05 17:57:53.690 1.500E-01 0.500 F 0.043 0.529 +07° 31' 31.80" 1.000E-01 0.500 F 0.206 -0.300 o 691 1.25 Yes No
2018ME7 O C K 2018-07-03.42759 1.000E-05 17:57:54.310 1.500E-01 0.500 F 0.043 -0.251 +07° 31' 44.50" 1.000E-01 0.500 F 0.206 -0.282 o 691 0.78 Yes No
2018ME7 O C K 2018-07-03.43693 1.000E-05 17:57:54.980 1.500E-01 0.500 F 0.043 -0.397 +07° 31' 57.80" 1.000E-01 0.500 F 0.206 0.321 20.5 R 0.70 -0.18 o 691 1.05 Yes Yes
2018NY14 O C K 2018-07-22.33089 1.000E-05 21:09:19.310 1.500E-01 0.500 F 0.003 -0.139 +02° 00' 03.30" 1.000E-01 0.500 F 0.220 0.182 20.0 R 0.70 -0.62 o 691 0.46 Yes Yes
2018NY14 O C K 2018-07-22.33896 1.000E-05 21:09:18.080 1.500E-01 0.500 F 0.003 0.022 +01° 59' 56.60" 1.000E-01 0.500 F 0.220 -0.126 20.8 R 0.70 0.18 o 691 0.26 Yes Yes
2018NY14 O C K 2018-07-22.34702 1.000E-05 21:09:16.840 1.500E-01 0.500 F 0.003 0.022 +01° 59' 50.30" 1.000E-01 0.500 F 0.220 -0.037 20.9 R 0.70 0.28 o 691 0.09 Yes Yes
2018FS3 O C 2018-07-22.35835 1.000E-05 00:13:06.980 1.500E-01 0.500 F -0.130 -0.116 +20° 26' 35.00" 1.000E-01 0.500 F 0.279 -0.025 20.8 V 0.70 0.02 o 691 0.24 Yes Yes
2018LO6 O C K 2018-07-22.36217 1.000E-05 01:22:38.650 1.500E-01 0.500 F -0.230 -0.262 +11° 11' 46.30" 1.000E-01 0.500 F 0.342 -0.045 20.5 R 0.70 0.36 o 691 0.53 Yes Yes
2018FS3 O C 2018-07-22.36508 1.000E-05 00:13:06.700 1.500E-01 0.500 F -0.130 -0.177 +20° 26' 26.20" 1.000E-01 0.500 F 0.279 0.011 20.8 V 0.70 0.02 o 691 0.36 Yes Yes
2018LO6 O C K 2018-07-22.36890 1.000E-05 01:22:40.610 1.500E-01 0.500 F -0.230 -0.620 +11° 12' 17.60" 1.000E-01 0.500 F 0.342 0.739 19.9 R 0.70 -0.24 o 691 1.94 Yes Yes
2018FS3 O C 2018-07-22.37181 1.000E-05 00:13:06.420 1.500E-01 0.500 F -0.130 -0.198 +20° 26' 17.40" 1.000E-01 0.500 F 0.279 0.062 20.7 V 0.70 -0.08 o 691 0.42 Yes Yes
2018LO6 O C K 2018-07-22.37561 1.000E-05 01:22:42.610 1.500E-01 0.500 F -0.230 -0.269 +11° 12' 46.90" 1.000E-01 0.500 F 0.342 -0.383 19.8 R 0.70 -0.34 o 691 0.94 Yes Yes
2005TG O C K 2018-07-22.37848 1.000E-05 01:11:14.220 1.500E-01 0.500 F -0.206 -0.218 +22° 07' 00.30" 1.000E-01 0.500 F 0.300 0.031 o 691 0.45 Yes No
2005TG O C K 2018-07-22.39278 1.000E-05 01:11:16.270 1.500E-01 0.500 F -0.206 -0.401 +22° 07' 14.60" 1.000E-01 0.500 F 0.300 -0.099 21.0 R 0.70 0.13 o 691 0.84 Yes Yes
2018MD7 O C 2018-07-22.39959 1.000E-05 00:45:35.830 1.500E-01 0.500 F -0.160 -0.159 +28° 35' 08.90" 1.000E-01 0.500 F 0.194 -0.064 19.6 V 0.70 -0.35 o 691 0.34 Yes Yes
2001HA4 O C K 2018-07-22.40215 1.000E-05 02:12:13.240 1.500E-01 0.500 F -0.185 0.003 +07° 25' 53.40" 1.000E-01 0.500 F 0.269 -0.240 o 691 0.50 Yes No
2018ME5 O C K 2018-07-22.40537 1.000E-05 23:13:13.390 1.500E-01 0.500 F -0.066 0.501 +25° 05' 47.60" 1.000E-01 0.500 F 0.267 -0.186 19.5 R 0.70 -0.23 o 691 1.07 Yes Yes
2018MD7 O C 2018-07-22.40907 1.000E-05 00:45:40.300 1.500E-01 0.500 F -0.160 0.328 +28° 34' 53.30" 1.000E-01 0.500 F 0.194 0.237 19.2 V 0.70 -0.75 o 691 0.81 Yes Yes
2001HA4 O C K 2018-07-22.41157 1.000E-05 02:12:15.710 1.500E-01 0.500 F -0.185 0.455 +07° 26' 13.60" 1.000E-01 0.500 F 0.269 -0.351 o 691 1.17 Yes No
2018ME5 O C K 2018-07-22.41485 1.000E-05 23:13:17.480 1.500E-01 0.500 F -0.066 0.036 +25° 07' 14.60" 1.000E-01 0.500 F 0.267 0.076 19.5 R 0.70 -0.23 o 691 0.17 Yes Yes
2018MD7 O C 2018-07-22.41873 1.000E-05 00:45:44.810 1.500E-01 0.500 F -0.160 0.417 +28° 34' 36.30" 1.000E-01 0.500 F 0.194 -0.403 19.2 V 0.70 -0.74 o 691 1.16 Yes Yes
2001HA4 O C K 2018-07-22.42122 1.000E-05 02:12:18.180 1.500E-01 0.500 F -0.185 0.037 +07° 26' 34.50" 1.000E-01 0.500 F 0.269 -0.261 o 691 0.55 Yes No
2018ME5 O C K 2018-07-22.42474 1.000E-05 23:13:21.740 1.500E-01 0.500 F -0.066 -0.513 +25° 08' 44.80" 1.000E-01 0.500 F 0.267 -0.087 19.5 R 0.70 -0.23 o 691 1.05 Yes Yes
2001QC96 O C K 2018-07-22.46139 1.000E-05 22:02:27.820 1.500E-01 0.500 F -0.005 0.114 +07° 39' 20.30" 1.000E-01 0.500 F 0.299 -0.024 19.2 R 0.70 -0.90 o 691 0.24 Yes Yes
2001QC96 O C K 2018-07-22.46638 1.000E-05 22:02:27.970 1.500E-01 0.500 F -0.005 0.402 +07° 39' 14.70" 1.000E-01 0.500 F 0.299 -0.424 18.9 R 0.70 -1.20 o 691 1.19 Yes Yes
2001QC96 O C K 2018-07-22.47137 1.000E-05 22:02:28.080 1.500E-01 0.500 F -0.005 0.088 +07° 39' 10.00" 1.000E-01 0.500 F 0.299 0.080 o 691 0.24 Yes No
2018KG1 O C K 2018-07-24.18234 1.000E-05 14:13:14.900 1.500E-01 0.500 F 0.248 -0.066 -08° 10' 54.10" 1.000E-01 0.500 F 0.054 -0.284 20.6 R 0.70 0.40 o 691 0.59 Yes Yes
2012FN62 O C K 2018-07-24.19158 1.000E-05 14:21:07.130 1.500E-01 0.500 F 0.223 0.239 +01° 44' 40.70" 1.000E-01 0.500 F 0.289 0.032 20.1 R 0.70 0.85 o 691 0.50 Yes Yes
2018MW6 O C 2018-07-24.19569 1.000E-05 15:16:29.720 1.500E-01 0.500 F 0.139 -0.329 +05° 29' 57.30" 1.000E-01 0.500 F 0.180 0.529 19.8 V 0.70 0.08 o 691 1.25 Yes Yes
2018MW6 O C 2018-07-24.20089 1.000E-05 15:16:28.920 1.500E-01 0.500 F 0.139 -0.092 +05° 30' 07.60" 1.000E-01 0.500 F 0.180 0.258 19.8 V 0.70 0.08 o 691 0.55 Yes Yes
2018KG1 O C K 2018-07-24.20250 1.000E-05 14:13:16.480 1.500E-01 0.500 F 0.248 -0.110 -08° 10' 53.50" 1.000E-01 0.500 F 0.054 -0.117 20.7 R 0.70 0.50 o 691 0.32 Yes Yes
2012FN62 O C K 2018-07-24.21175 1.000E-05 14:21:09.750 1.500E-01 0.500 F 0.223 0.015 +01° 44' 15.60" 1.000E-01 0.500 F 0.289 0.354 19.7 R 0.70 0.45 o 691 0.73 Yes Yes
2018MW6 O C 2018-07-24.21984 1.000E-05 15:16:25.960 1.500E-01 0.500 F 0.139 -0.002 +05° 30' 46.50" 1.000E-01 0.500 F 0.180 0.643 20.0 V 0.70 0.28 o 691 1.29 Yes Yes
2018KG1 O C K 2018-07-24.22273 1.000E-05 14:13:18.070 1.500E-01 0.500 F 0.248 -0.253 -08° 10' 52.80" 1.000E-01 0.500 F 0.054 0.137 20.9 R 0.70 0.70 o 691 0.58 Yes Yes
2012FN62 O C K 2018-07-24.23199 1.000E-05 14:21:12.410 1.500E-01 0.500 F 0.223 0.119 +01° 43' 49.80" 1.000E-01 0.500 F 0.289 0.074 19.8 R 0.70 0.55 o 691 0.29 Yes Yes
2018LU3 O C K 2018-07-24.24503 1.000E-05 19:49:25.810 1.500E-01 0.500 F -0.024 -0.099 -20° 40' 15.30" 1.000E-01 0.500 F 0.099 0.106 19.3 R 0.70 0.19 o 691 0.30 Yes Yes
2018LU3 O C K 2018-07-24.26564 1.000E-05 19:49:29.460 1.500E-01 0.500 F -0.024 -0.026 -20° 39' 59.80" 1.000E-01 0.500 F 0.099 0.117 19.6 R 0.70 0.49 o 691 0.24 Yes Yes
2018MS6 O C K 2018-07-24.28973 1.000E-05 21:49:43.340 1.500E-01 0.500 F 0.077 0.103 +08° 48' 16.90" 1.000E-01 0.500 F 0.134 -0.010 o 691 0.21 Yes No
2018MS6 O C K 2018-07-24.30902 1.000E-05 21:49:43.180 1.500E-01 0.500 F 0.077 0.339 +08° 48' 41.10" 1.000E-01 0.500 F 0.134 0.247 o 691 0.84 Yes No
2018MS6 O C K 2018-07-24.32828 1.000E-05 21:49:42.960 1.500E-01 0.500 F 0.077 -0.170 +08° 49' 04.50" 1.000E-01 0.500 F 0.134 -0.201 o 691 0.53 Yes No
2018MH O C K 2018-07-24.38839 1.000E-05 21:21:58.310 1.500E-01 0.500 F -0.059 -0.541 +03° 12' 55.20" 1.000E-01 0.500 F 0.166 -0.252 19.2 R 0.70 -0.05 o 691 1.22 Yes Yes
2017YC8 O C H 2018-07-24.39156 1.000E-05 22:46:31.490 1.500E-01 0.500 F -0.146 -0.252 -09° 35' 51.30" 1.000E-01 0.500 F 0.295 0.462 19.7 R 0.70 0.48 o 691 1.06 Yes Yes
1999RB32 O C 2018-07-24.39315 1.000E-05 22:17:22.940 1.500E-01 0.500 F -0.214 -0.036 -16° 30' 23.70" 1.000E-01 0.500 F 0.232 -0.862 20.0 V 0.70 0.78 o 691 1.74 Yes Yes
2018MH O C K 2018-07-24.39502 1.000E-05 21:22:00.050 1.500E-01 0.500 F -0.059 0.028 +03° 12' 00.70" 1.000E-01 0.500 F 0.166 0.230 19.9 R 0.70 0.65 o 691 0.48 Yes Yes
2017YC8 O C H 2018-07-24.39805 1.000E-05 22:46:30.280 1.500E-01 0.500 F -0.146 -0.461 -09° 35' 42.30" 1.000E-01 0.500 F 0.295 0.106 20.1 R 0.70 0.88 o 691 0.95 Yes Yes
1999RB32 O C 2018-07-24.39961 1.000E-05 22:17:23.750 1.500E-01 0.500 F -0.214 -0.161 -16° 30' 16.30" 1.000E-01 0.500 F 0.232 -0.404 20.0 V 0.70 0.78 o 691 0.88 Yes Yes
2018MH O C K 2018-07-24.40151 1.000E-05 21:22:01.710 1.500E-01 0.500 F -0.059 -0.092 +03° 11' 06.40" 1.000E-01 0.500 F 0.166 -0.247 19.5 R 0.70 0.25 o 691 0.54 Yes Yes
2017YC8 O C H 2018-07-24.40463 1.000E-05 22:46:29.060 1.500E-01 0.500 F -0.146 -0.567 -09° 35' 32.20" 1.000E-01 0.500 F 0.295 0.717 19.4 R 0.70 0.18 o 691 1.85 Yes Yes
1999RB32 O C 2018-07-24.40618 1.000E-05 22:17:24.600 1.500E-01 0.500 F -0.214 0.088 -16° 30' 09.50" 1.000E-01 0.500 F 0.232 -0.678 20.1 V 0.70 0.88 o 691 1.37 Yes Yes
2002NE71 O C 2018-07-24.41109 1.000E-05 00:14:06.370 1.500E-01 0.500 F -0.092 -0.378 +19° 45' 18.00" 1.000E-01 0.500 F 0.338 -0.083 19.9 V 0.70 0.06 o 691 0.81 Yes Yes
2018FS3 O C H 2018-07-24.41109 1.000E-05 00:11:57.500 1.500E-01 0.500 F -0.045 0.160 +19° 40' 03.40" 1.000E-01 0.500 F 0.226 -0.003 20.6 R 0.70 0.22 o 691 0.32 Yes Yes
2014DN112 O C K 2018-07-24.41282 1.000E-05 00:54:43.020 1.500E-01 0.500 F -0.206 -0.343 +15° 19' 52.30" 1.000E-01 0.500 F 0.398 -0.380 21.1 R 0.70 0.23 o 691 1.10 Yes Yes
2018FS3 O C H 2018-07-24.42422 1.000E-05 00:11:56.850 1.500E-01 0.500 F -0.045 0.031 +19° 39' 45.60" 1.000E-01 0.500 F 0.226 -0.257 20.5 R 0.70 0.12 o 691 0.52 Yes Yes
2002NE71 O C 2018-07-24.42422 1.000E-05 00:14:10.070 1.500E-01 0.500 F -0.092 -0.189 +19° 46' 01.70" 1.000E-01 0.500 F 0.338 0.002 19.7 V 0.70 -0.14 o 691 0.39 Yes Yes
2014DN112 O C K 2018-07-24.42595 1.000E-05 00:54:46.310 1.500E-01 0.500 F -0.206 0.114 +15° 20' 19.50" 1.000E-01 0.500 F 0.398 -0.169 21.4 R 0.70 0.54 o 691 0.41 Yes Yes
2018MD7 O C K 2018-07-24.43430 1.000E-05 01:03:21.500 1.500E-01 0.500 F -0.123 -0.481 +27° 24' 10.90" 1.000E-01 0.500 F 0.192 -0.056 19.2 R 0.70 -0.27 o 691 0.97 Yes Yes
2018FS3 O C H 2018-07-24.43747 1.000E-05 00:11:56.180 1.500E-01 0.500 F -0.045 -0.221 +19° 39' 27.90" 1.000E-01 0.500 F 0.226 -0.182 21.0 R 0.70 0.62 o 691 0.58 Yes Yes
2002NE71 O C 2018-07-24.43747 1.000E-05 00:14:13.770 1.500E-01 0.500 F -0.092 -0.463 +19° 46' 45.50" 1.000E-01 0.500 F 0.338 -0.188 19.7 V 0.70 -0.14 o 691 1.04 Yes Yes
2018MD7 O C K 2018-07-24.44773 1.000E-05 01:03:28.260 1.500E-01 0.500 F -0.123 -0.266 +27° 23' 41.30" 1.000E-01 0.500 F 0.192 0.133 19.5 R 0.70 0.03 o 691 0.60 Yes Yes
2005TG O C 2018-07-24.45104 1.000E-05 01:16:19.400 1.500E-01 0.500 F -0.158 -0.439 +22° 41' 25.10" 1.000E-01 0.500 F 0.319 -0.175 20.9 V 0.70 -0.31 o 691 0.96 Yes Yes
2005TG O C 2018-07-24.45562 1.000E-05 01:16:20.060 1.500E-01 0.500 F -0.158 -0.570 +22° 41' 29.80" 1.000E-01 0.500 F 0.319 -0.056 20.7 V 0.70 -0.51 o 691 1.16 Yes Yes
2005TG O C 2018-07-24.46022 1.000E-05 01:16:20.770 1.500E-01 0.500 F -0.158 -0.049 +22° 41' 34.30" 1.000E-01 0.500 F 0.319 -0.155 20.9 V 0.70 -0.31 o 691 0.33 Yes Yes
2018KR2 O C 2018-07-24.46936 1.000E-05 01:36:44.780 1.500E-01 0.500 F -0.216 -0.481 -16° 59' 42.80" 1.000E-01 0.500 F 0.133 -0.081 20.1 V 0.70 0.61 o 691 0.98 Yes Yes
2018KR2 O C 2018-07-24.47298 1.000E-05 01:36:45.240 1.500E-01 0.500 F -0.216 -0.199 -16° 59' 39.90" 1.000E-01 0.500 F 0.133 -0.136 20.0 V 0.70 0.51 o 691 0.48 Yes Yes
2018KR2 O C 2018-07-24.47658 1.000E-05 01:36:45.690 1.500E-01 0.500 F -0.216 -0.020 -16° 59' 37.10" 1.000E-01 0.500 F 0.133 -0.277 20.1 V 0.70 0.61 o 691 0.56 Yes Yes
2015RB82 O C 2018-08-04.23349 1.000E-05 20:18:20.370 1.500E-01 0.500 F 0.047 0.055 -19° 31' 59.40" 1.000E-01 0.500 F -0.010 0.045 18.0 V 0.70 0.07 o 691 0.14 Yes Yes
2018LU3 O C K 2018-08-04.23349 1.000E-05 20:17:53.260 1.500E-01 0.500 F 0.020 0.375 -18° 42' 23.30" 1.000E-01 0.500 F 0.038 0.037 20.6 R 0.70 0.63 o 691 0.77 Yes Yes
2015RB82 O C 2018-08-04.23913 1.000E-05 20:18:20.930 1.500E-01 0.500 F 0.047 -0.106 -19° 32' 03.80" 1.000E-01 0.500 F -0.010 0.055 18.1 V 0.70 0.17 o 691 0.24 Yes Yes
2018LU3 O C K 2018-08-04.23913 1.000E-05 20:17:53.790 1.500E-01 0.500 F 0.020 -0.061 -18° 42' 20.60" 1.000E-01 0.500 F 0.038 -0.009 20.4 R 0.70 0.43 o 691 0.13 Yes Yes
2015RB82 O C 2018-08-04.24477 1.000E-05 20:18:21.500 1.500E-01 0.500 F 0.047 -0.113 -19° 32' 08.20" 1.000E-01 0.500 F -0.010 0.051 18.1 V 0.70 0.17 o 691 0.25 Yes Yes
2018LU3 O C K 2018-08-04.24477 1.000E-05 20:17:54.360 1.500E-01 0.500 F 0.020 0.089 -18° 42' 17.70" 1.000E-01 0.500 F 0.038 0.129 20.5 R 0.70 0.53 o 691 0.32 Yes Yes
2018NY14 O C K 2018-08-04.26805 1.000E-05 20:24:48.980 1.500E-01 0.500 F 0.021 0.224 -02° 36' 18.70" 1.000E-01 0.500 F 0.211 -0.037 19.7 R 0.70 0.08 o 691 0.46 Yes Yes
2018NY14 O C K 2018-08-04.27167 1.000E-05 20:24:47.920 1.500E-01 0.500 F 0.021 -0.538 -02° 36' 25.40" 1.000E-01 0.500 F 0.211 -0.040 19.6 R 0.70 -0.02 o 691 1.08 Yes Yes
2018NY14 O C K 2018-08-04.27529 1.000E-05 20:24:46.950 1.500E-01 0.500 F 0.021 0.052 -02° 36' 32.00" 1.000E-01 0.500 F 0.211 0.058 19.5 R 0.70 -0.12 o 691 0.16 Yes Yes
2018MS6 O C 2018-08-04.31091 1.000E-05 21:47:28.690 1.500E-01 0.500 F -0.019 -0.330 +11° 46' 19.00" 1.000E-01 0.500 F 0.201 -0.099 19.8 V 0.70 -0.47 o 691 0.69 Yes Yes
2018OY O C K 2018-08-04.31091 1.000E-05 21:44:26.680 1.500E-01 0.500 F 0.015 0.012 +12° 05' 12.10" 1.000E-01 0.500 F 0.180 -0.453 o 691 0.95 Yes No
2018MS6 O C 2018-08-04.32023 1.000E-05 21:47:28.410 1.500E-01 0.500 F -0.019 -0.398 +11° 46' 25.60" 1.000E-01 0.500 F 0.201 -0.057 20.2 V 0.70 -0.07 o 691 0.81 Yes Yes
2018OY O C K 2018-08-04.32023 1.000E-05 21:44:27.520 1.500E-01 0.500 F 0.015 0.000 +12° 04' 53.40" 1.000E-01 0.500 F 0.180 0.136 o 691 0.29 Yes No
2018MS6 O C 2018-08-04.32955 1.000E-05 21:47:28.160 1.500E-01 0.500 F -0.019 -0.011 +11° 46' 32.00" 1.000E-01 0.500 F 0.201 -0.197 20.4 V 0.70 0.13 o 691 0.40 Yes Yes
2018OY O C K 2018-08-04.32955 1.000E-05 21:44:28.350 1.500E-01 0.500 F 0.015 -0.089 +12° 04' 34.00" 1.000E-01 0.500 F 0.180 0.069 o 691 0.24 Yes No
2010LT108 O C 2018-08-04.34345 1.000E-05 22:02:18.340 1.500E-01 0.500 F -0.042 0.803 +14° 58' 29.10" 1.000E-01 0.500 F 0.313 -0.405 20.3 V 0.70 -0.89 o 691 1.88 Yes Yes
2015RJ83 O C 2018-08-04.34345 1.000E-05 22:03:44.230 1.500E-01 0.500 F -0.033 0.015 +14° 50' 40.60" 1.000E-01 0.500 F 0.272 -0.060 20.1 V 0.70 -0.18 o 691 0.12 Yes Yes
2010LT108 O C 2018-08-04.35215 1.000E-05 22:02:17.380 1.500E-01 0.500 F -0.042 -0.553 +14° 58' 15.00" 1.000E-01 0.500 F 0.313 0.088 21.1 V 0.70 -0.09 o 691 1.17 Yes Yes
2015RJ83 O C 2018-08-04.35215 1.000E-05 22:03:44.930 1.500E-01 0.500 F -0.033 0.047 +14° 50' 38.40" 1.000E-01 0.500 F 0.272 -0.200 19.9 V 0.70 -0.38 o 691 0.41 Yes Yes
2010LT108 O C 2018-08-04.36085 1.000E-05 22:02:16.550 1.500E-01 0.500 F -0.042 -0.023 +14° 58' 00.00" 1.000E-01 0.500 F 0.313 -0.308 21.1 V 0.70 -0.09 o 691 0.64 Yes Yes
2015RJ83 O C 2018-08-04.36085 1.000E-05 22:03:45.610 1.500E-01 0.500 F -0.033 -0.209 +14° 50' 36.30" 1.000E-01 0.500 F 0.272 -0.219 19.8 V 0.70 -0.48 o 691 0.61 Yes Yes
2001QC96 O C K 2018-08-04.37246 1.000E-05 22:08:30.040 1.500E-01 0.500 F -0.091 -0.030 +01° 05' 49.80" 1.000E-01 0.500 F 0.287 -0.020 19.7 R 0.70 0.79 o 691 0.07 Yes Yes
2001QC96 O C K 2018-08-04.37640 1.000E-05 22:08:30.080 1.500E-01 0.500 F -0.091 -0.091 +01° 05' 38.40" 1.000E-01 0.500 F 0.287 -0.044 19.7 R 0.70 0.79 o 691 0.20 Yes Yes
2001QC96 O C K 2018-08-04.38033 1.000E-05 22:08:30.110 1.500E-01 0.500 F -0.091 -0.300 +01° 05' 27.00" 1.000E-01 0.500 F 0.287 -0.093 19.8 R 0.70 0.89 o 691 0.64 Yes Yes
2013RX80 O C K 2018-08-04.38593 1.000E-05 22:59:40.850 1.500E-01 0.500 F -0.058 0.386 -01° 27' 47.00" 1.000E-01 0.500 F 0.269 0.142 21.6 R 0.70 0.59 o 691 0.83 Yes Yes
2013RX80 O C K 2018-08-04.39942 1.000E-05 22:59:40.040 1.500E-01 0.500 F -0.058 0.087 -01° 27' 48.10" 1.000E-01 0.500 F 0.269 -0.372 21.8 R 0.70 0.79 o 691 0.77 Yes Yes
2013RX80 O C K 2018-08-04.41291 1.000E-05 22:59:39.240 1.500E-01 0.500 F -0.058 -0.056 -01° 27' 48.50" 1.000E-01 0.500 F 0.269 -0.185 21.5 R 0.70 0.50 o 691 0.39 Yes Yes
2013PU31 O C K 2018-08-04.43802 1.000E-05 23:11:45.580 1.500E-01 0.500 F -0.221 -0.104 -11° 09' 57.40" 1.000E-01 0.500 F 0.304 0.024 20.2 R 0.70 -0.24 o 691 0.22 Yes Yes
2013PU31 O C K 2018-08-04.44350 1.000E-05 23:11:45.320 1.500E-01 0.500 F -0.221 -0.047 -11° 10' 01.90" 1.000E-01 0.500 F 0.304 0.680 20.5 R 0.70 0.06 o 691 1.37 Yes Yes
2013PU31 O C K 2018-08-04.44897 1.000E-05 23:11:45.030 1.500E-01 0.500 F -0.221 -0.440 -11° 10' 08.00" 1.000E-01 0.500 F 0.304 -0.273 20.0 R 0.70 -0.44 o 691 1.05 Yes Yes
2018NC O C K 2018-08-05.15233 1.000E-05 16:53:49.140 1.500E-01 0.500 F -0.102 0.514 -18° 04' 24.80" 1.000E-01 0.500 F 0.202 0.324 o 691 1.22 Yes No
2018NC O C K 2018-08-05.16028 1.000E-05 16:53:50.940 1.500E-01 0.500 F -0.102 0.218 -18° 04' 36.40" 1.000E-01 0.500 F 0.202 -0.275 o 691 0.71 Yes No
2018NC O C K 2018-08-05.16822 1.000E-05 16:53:52.740 1.500E-01 0.500 F -0.102 -0.043 -18° 04' 46.80" 1.000E-01 0.500 F 0.202 0.295 o 691 0.60 Yes No
2018LS15 O C K 2018-08-05.17846 1.000E-05 16:32:38.160 1.500E-01 0.500 F 0.078 -0.439 -16° 40' 09.50" 1.000E-01 0.500 F 0.254 0.131 o 691 1.01 Yes No
2018LS15 O C K 2018-08-05.18500 1.000E-05 16:32:39.390 1.500E-01 0.500 F 0.078 0.382 -16° 40' 33.60" 1.000E-01 0.500 F 0.254 0.076 o 691 0.85 Yes No
2018LS15 O C K 2018-08-05.19153 1.000E-05 16:32:40.550 1.500E-01 0.500 F 0.078 0.194 -16° 40' 57.80" 1.000E-01 0.500 F 0.254 -0.132 o 691 0.52 Yes No
2010MQ1 O C K 2018-08-05.19971 1.000E-05 16:40:46.820 1.500E-01 0.500 F 0.106 0.249 -08° 44' 52.40" 1.000E-01 0.500 F 0.144 0.044 o 691 0.51 Yes No
2010MQ1 O C K 2018-08-05.20574 1.000E-05 16:40:47.740 1.500E-01 0.500 F 0.106 -0.096 -08° 44' 39.30" 1.000E-01 0.500 F 0.144 -0.194 o 691 0.44 Yes No
2010MQ1 O C K 2018-08-05.21179 1.000E-05 16:40:48.670 1.500E-01 0.500 F 0.106 -0.344 -08° 44' 25.80" 1.000E-01 0.500 F 0.144 -0.075 o 691 0.71 Yes No
2018LA16 O C K 2018-08-05.22420 1.000E-05 20:08:44.570 1.500E-01 0.500 F -0.072 -0.097 -17° 56' 45.50" 1.000E-01 0.500 F 0.169 0.038 o 691 0.21 Yes No
2018LU3 O C K 2018-08-05.23489 1.000E-05 20:19:49.120 1.500E-01 0.500 F 0.041 -0.089 -18° 33' 57.60" 1.000E-01 0.500 F -0.001 -0.090 o 691 0.26 Yes No
2018LA16 O C K 2018-08-05.24274 1.000E-05 20:08:43.120 1.500E-01 0.500 F -0.072 0.221 -17° 56' 40.20" 1.000E-01 0.500 F 0.169 0.136 o 691 0.52 Yes No
2018LU3 O C K 2018-08-05.25345 1.000E-05 20:19:50.840 1.500E-01 0.500 F 0.041 -0.615 -18° 33' 48.70" 1.000E-01 0.500 F -0.001 0.032 o 691 1.25 Yes No
2018LA16 O C K 2018-08-05.26128 1.000E-05 20:08:41.660 1.500E-01 0.500 F -0.072 0.406 -17° 56' 34.60" 1.000E-01 0.500 F 0.169 0.510 o 691 1.31 Yes No
2018LU3 O C K 2018-08-05.27199 1.000E-05 20:19:52.610 1.500E-01 0.500 F 0.041 -0.262 -18° 33' 40.20" 1.000E-01 0.500 F -0.001 -0.414 o 691 1.00 Yes No
2013RV9 O C K 2018-08-05.28267 1.000E-05 21:19:50.580 1.500E-01 0.500 F -0.251 0.332 -21° 36' 48.80" 1.000E-01 0.500 F 0.126 0.419 21.8 R 0.70 0.58 o 691 1.09 Yes Yes
2013QG17 O C K 2018-08-05.29211 1.000E-05 21:17:53.860 1.500E-01 0.500 F 0.010 -0.615 -23° 12' 44.70" 1.000E-01 0.500 F 0.428 -0.026 o 691 1.25 Yes No
2013RV9 O C K 2018-08-05.29557 1.000E-05 21:19:48.490 1.500E-01 0.500 F -0.251 0.400 -21° 36' 51.20" 1.000E-01 0.500 F 0.126 0.505 21.7 R 0.70 0.48 o 691 1.31 Yes Yes
2013QG17 O C K 2018-08-05.30503 1.000E-05 21:17:53.120 1.500E-01 0.500 F 0.010 0.877 -23° 12' 58.70" 1.000E-01 0.500 F 0.428 1.500 o 691 3.43 No No
2013RV9 O C K 2018-08-05.30849 1.000E-05 21:19:46.370 1.500E-01 0.500 F -0.251 0.143 -21° 36' 54.20" 1.000E-01 0.500 F 0.126 -0.076 22.3 R 0.70 1.08 o 691 0.33 Yes Yes
2013QG17 O C K 2018-08-05.31794 1.000E-05 21:17:52.140 1.500E-01 0.500 F 0.010 -0.933 -23° 13' 14.50" 1.000E-01 0.500 F 0.428 1.183 o 691 3.04 Yes No
2018OY O C K 2018-08-05.32522 1.000E-05 21:46:25.590 1.500E-01 0.500 F -0.005 -0.008 +11° 31' 35.40" 1.000E-01 0.500 F 0.178 0.661 o 691 1.40 Yes No
2018MS6 O C 2018-08-05.32522 1.000E-05 21:47:06.580 1.500E-01 0.500 F -0.019 -0.326 +11° 57' 41.30" 1.000E-01 0.500 F 0.201 -0.328 20.4 V 0.70 0.13 o 691 0.93 Yes Yes
2018OY O C K 2018-08-05.33566 1.000E-05 21:46:26.380 1.500E-01 0.500 F -0.005 0.296 +11° 31' 14.90" 1.000E-01 0.500 F 0.178 -0.211 o 691 0.77 Yes No
2018MS6 O C 2018-08-05.33566 1.000E-05 21:47:06.240 1.500E-01 0.500 F -0.019 -0.589 +11° 57' 48.40" 1.000E-01 0.500 F 0.201 -0.014 20.1 V 0.70 -0.17 o 691 1.19 Yes Yes
2018OY O C K 2018-08-05.34610 1.000E-05 21:46:27.120 1.500E-01 0.500 F -0.005 -0.093 +11° 30' 55.60" 1.000E-01 0.500 F 0.178 0.168 o 691 0.41 Yes No
2018MS6 O C 2018-08-05.34610 1.000E-05 21:47:05.940 1.500E-01 0.500 F -0.019 -0.258 +11° 57' 54.80" 1.000E-01 0.500 F 0.201 -0.376 20.3 V 0.70 0.03 o 691 0.92 Yes Yes
2010LT108 O C K 2018-08-05.35895 1.000E-05 22:00:40.580 1.500E-01 0.500 F -0.043 -0.003 +14° 29' 41.30" 1.000E-01 0.500 F 0.330 0.175 o 691 0.36 Yes No
2010LT108 O C K 2018-08-05.36828 1.000E-05 22:00:39.650 1.500E-01 0.500 F -0.043 0.179 +14° 29' 25.10" 1.000E-01 0.500 F 0.330 0.082 o 691 0.41 Yes No
2010LT108 O C K 2018-08-05.37761 1.000E-05 22:00:38.700 1.500E-01 0.500 F -0.043 0.069 +14° 29' 09.00" 1.000E-01 0.500 F 0.330 0.102 o 691 0.25 Yes No
2009SX1 O C K 2018-08-05.42915 1.000E-05 00:34:34.060 1.500E-01 0.500 F -0.223 -0.120 +04° 47' 48.00" 1.000E-01 0.500 F 0.123 0.022 20.7 R 0.70 0.06 o 691 0.24 Yes Yes
2009SX1 O C K 2018-08-05.43589 1.000E-05 00:34:34.390 1.500E-01 0.500 F -0.223 0.144 +04° 47' 53.80" 1.000E-01 0.500 F 0.123 0.270 20.9 R 0.70 0.26 o 691 0.61 Yes Yes
2009SX1 O C K 2018-08-05.44264 1.000E-05 00:34:34.720 1.500E-01 0.500 F -0.223 0.405 +04° 47' 59.30" 1.000E-01 0.500 F 0.123 0.211 21.2 R 0.70 0.56 o 691 0.91 Yes Yes
2018MW6 O C 2018-08-06.14626 1.000E-05 14:42:39.570 1.500E-01 0.500 F 0.112 -0.404 +13° 24' 44.80" 1.000E-01 0.500 F 0.230 -0.258 o 691 0.96 Yes No
2018MW6 O C 2018-08-06.15036 1.000E-05 14:42:38.840 1.500E-01 0.500 F 0.112 -0.206 +13° 24' 55.10" 1.000E-01 0.500 F 0.230 0.225 o 691 0.61 Yes No
2018MW6 O C 2018-08-06.15447 1.000E-05 14:42:38.090 1.500E-01 0.500 F 0.112 -0.281 +13° 25' 04.80" 1.000E-01 0.500 F 0.230 0.087 o 691 0.59 Yes No
2012FN62 O C K 2018-08-06.16011 1.000E-05 14:53:25.260 1.500E-01 0.500 F 0.160 -0.245 -03° 06' 03.40" 1.000E-01 0.500 F 0.123 0.079 19.9 R 0.70 0.66 o 691 0.56 Yes Yes
2012FN62 O C K 2018-08-06.16478 1.000E-05 14:53:26.010 1.500E-01 0.500 F 0.160 -0.376 -03° 06' 10.00" 1.000E-01 0.500 F 0.123 0.100 19.7 R 0.70 0.46 o 691 0.84 Yes Yes
2018LG5 O C K 2018-08-06.17795 1.000E-05 15:29:26.090 1.500E-01 0.500 F 0.189 0.023 +16° 31' 19.30" 1.000E-01 0.500 F 0.248 0.306 o 691 0.61 Yes No
2018LG5 O C K 2018-08-06.19039 1.000E-05 15:29:27.050 1.500E-01 0.500 F 0.189 0.176 +16° 30' 45.30" 1.000E-01 0.500 F 0.248 -0.248 o 691 0.61 Yes No
2018LG5 O C K 2018-08-06.20282 1.000E-05 15:29:27.970 1.500E-01 0.500 F 0.189 -0.260 +16° 30' 12.00" 1.000E-01 0.500 F 0.248 -0.126 o 691 0.58 Yes No
2018FS1 O C K 2018-08-06.21723 1.000E-05 16:33:37.200 1.500E-01 0.500 F 0.184 -0.095 -04° 51' 15.60" 1.000E-01 0.500 F 0.223 -0.020 o 691 0.20 Yes No
2018FS1 O C K 2018-08-06.22569 1.000E-05 16:33:39.000 1.500E-01 0.500 F 0.184 -0.050 -04° 51' 31.00" 1.000E-01 0.500 F 0.223 -0.118 o 691 0.26 Yes No
2018FS1 O C K 2018-08-06.23413 1.000E-05 16:33:40.790 1.500E-01 0.500 F 0.184 -0.112 -04° 51' 46.00" 1.000E-01 0.500 F 0.223 0.143 o 691 0.38 Yes No
2000JT66 O C 2018-08-06.26986 1.000E-05 20:29:20.260 1.500E-01 0.500 F -0.191 -0.213 -28° 09' 34.20" 1.000E-01 0.500 F 0.352 0.145 o 691 0.52 Yes No
2000JT66 O C 2018-08-06.27710 1.000E-05 20:29:19.200 1.500E-01 0.500 F -0.191 -0.091 -28° 09' 45.00" 1.000E-01 0.500 F 0.352 -0.085 o 691 0.25 Yes No
2000JT66 O C 2018-08-06.28435 1.000E-05 20:29:18.100 1.500E-01 0.500 F -0.191 -0.476 -28° 09' 55.20" 1.000E-01 0.500 F 0.352 0.289 o 691 1.12 Yes No
2018PF9 O C K 2018-08-06.33246 1.000E-05 21:11:07.220 1.500E-01 0.500 F -0.044 1.321 -27° 23' 19.60" 1.000E-01 0.500 F 0.452 0.175 o 691 2.71 Yes No
2018PF9 O C K 2018-08-06.33970 1.000E-05 21:11:09.940 1.500E-01 0.500 F -0.044 1.208 -27° 23' 15.70" 1.000E-01 0.500 F 0.452 -0.100 o 691 2.46 Yes No
2018PF9 O C K 2018-08-06.34694 1.000E-05 21:11:12.700 1.500E-01 0.500 F -0.044 1.612 -27° 23' 10.70" 1.000E-01 0.500 F 0.452 0.657 o 691 3.43 No No
2018LL2 O C K 2018-08-07.16124 1.000E-05 17:09:54.570 1.500E-01 0.500 F 0.045 -0.084 +18° 50' 09.50" 1.000E-01 0.500 F 0.244 -0.078 21.7 R 0.70 0.39 o 691 0.23 Yes Yes
2018LL2 O C K 2018-08-07.16933 1.000E-05 17:09:55.700 1.500E-01 0.500 F 0.045 -0.062 +18° 49' 56.80" 1.000E-01 0.500 F 0.244 -0.179 21.5 R 0.70 0.19 o 691 0.39 Yes Yes
2018LL2 O C K 2018-08-07.17742 1.000E-05 17:09:56.840 1.500E-01 0.500 F 0.045 0.100 +18° 49' 44.50" 1.000E-01 0.500 F 0.244 0.127 o 691 0.33 Yes No
2018PB9 O C K 2018-08-07.38655 1.000E-05 21:06:21.800 1.500E-01 0.500 F -0.040 -0.682 -14° 33' 01.00" 1.000E-01 0.500 F 0.234 0.048 o 691 1.39 Yes No
2018PB9 O C K 2018-08-07.41353 1.000E-05 21:06:19.720 1.500E-01 0.500 F -0.040 0.323 -14° 33' 18.70" 1.000E-01 0.500 F 0.234 -0.302 o 691 0.90 Yes No
2018PX7 O C K 2018-08-07.46607 1.000E-05 23:57:47.000 1.500E-01 0.500 F -0.174 0.199 -14° 58' 19.30" 1.000E-01 0.500 F 0.239 0.189 20.5 R 0.70 0.55 o 691 0.55 Yes Yes
2018PX7 O C K 2018-08-07.47229 1.000E-05 23:57:47.200 1.500E-01 0.500 F -0.174 0.055 -14° 57' 59.40" 1.000E-01 0.500 F 0.239 0.061 20.3 R 0.70 0.35 o 691 0.17 Yes Yes
2018PX7 O C K 2018-08-07.47852 1.000E-05 23:57:47.390 1.500E-01 0.500 F -0.142 -0.281 -14° 57' 39.10" 1.000E-01 0.500 F 0.272 0.254 19.6 R 0.70 -0.35 o 691 0.76 Yes Yes
2018PH22 O C H 2018-08-14.29550 1.000E-05 20:53:22.780 1.500E-01 0.500 F 0.028 0.504 -03° 24' 50.90" 1.000E-01 0.500 F 0.377 0.144 21.1 R 0.70 0.60 o 691 1.06 Yes Yes
2018PH22 O C H 2018-08-14.30823 1.000E-05 20:53:20.080 1.500E-01 0.500 F 0.028 0.442 -03° 24' 53.20" 1.000E-01 0.500 F 0.377 -0.856 20.1 R 0.70 -0.40 o 691 1.94 Yes Yes
2018PH22 O C H 2018-08-14.32098 1.000E-05 20:53:17.450 1.500E-01 0.500 F 0.028 1.494 -03° 24' 55.30" 1.000E-01 0.500 F 0.377 -1.658 20.2 R 0.70 -0.29 o 691 4.42 No Yes
2018PB22 O C K 2018-08-14.32249 1.000E-05 21:19:33.680 1.500E-01 0.500 F 0.003 0.094 +04° 21' 10.80" 1.000E-01 0.500 F 0.248 -0.121 20.6 R 0.70 0.20 o 691 0.31 Yes Yes
2018PB22 O C K 2018-08-14.33424 1.000E-05 21:19:31.580 1.500E-01 0.500 F 0.003 0.288 +04° 20' 40.40" 1.000E-01 0.500 F 0.248 0.171 20.5 R 0.70 0.10 o 691 0.68 Yes Yes
2018PB22 O C K 2018-08-14.34597 1.000E-05 21:19:29.440 1.500E-01 0.500 F 0.003 -0.190 +04° 20' 09.30" 1.000E-01 0.500 F 0.248 -0.290 20.6 R 0.70 0.20 o 691 0.70 Yes Yes
2018PX7 O C H 2018-08-14.36271 1.000E-05 00:01:30.320 1.500E-01 0.500 F -0.125 -0.564 -09° 02' 47.60" 1.000E-01 0.500 F 0.174 0.744 20.0 R 0.70 0.08 o 691 1.88 Yes Yes
2018PX7 O C H 2018-08-14.37758 1.000E-05 00:01:30.370 1.500E-01 0.500 F -0.125 0.202 -09° 02' 04.50" 1.000E-01 0.500 F 0.174 0.034 20.1 R 0.70 0.18 o 691 0.41 Yes Yes
2018PH22 O C K 2018-08-29.26854 1.000E-05 19:40:56.130 1.500E-01 0.500 F 0.179 -0.290 -04° 36' 22.00" 1.000E-01 0.500 F 0.311 0.046 19.8 R 0.70 -0.29 o 691 0.59 Yes Yes
2018PH22 O C K 2018-08-29.27698 1.000E-05 19:40:52.660 1.500E-01 0.500 F 0.179 -0.414 -04° 36' 26.30" 1.000E-01 0.500 F 0.311 -0.344 20.7 R 0.70 0.61 o 691 1.09 Yes Yes

[1-200] [201-400] [401-600] [601-800] [801-1000] [1001-1200] [1201-1400] [1401-1600] [1601-1800] [1801-2000] [2001-2200] [2201-2400] [2401-2600] [2601-2800] [2801-3000] [3001-3200] [3201-3400] [3401-3600] [3601-3800] [3801-4000] [4001-4200] [4201-4400] [4401-4600] [4601-4800] [4801-5000] [5001-5200] [5201-5400] [5401-5600] [5601-5800] [5801-6000] [6001-6200] [6201-6400] [6401-6600] [6601-6800] [6801-7000] [7001-7200] [7201-7400] [7401-7600] [7601-7800] [7801-8000] [8001-8200] [8201-8400] [8401-8600] [8601-8800] [8801-9000] [9001-9200] [9201-9400] [9401-9600] [9601-9800] [9801-10000] [10001-10200] [10201-10400] [10401-10600] [10601-10800] [10801-11000] [11001-11200] [11201-11400] [11401-11600] [11601-11800] [11801-12000] [12001-12200] [12201-12400] [12401-12600] [12601-12800] [12801-13000] [13001-13200] [13201-13400] [13401-13600] [13601-13800] [13801-14000] [14001-14200] [14201-14400] [14401-14600] [14601-14800] [14801-15000] [15001-15200] [15201-15400] [15401-15600] [15601-15800] [15801-16000] [16001-16200] [16201-16400] [16401-16600] [16601-16800] [16801-17000] [17001-17200] [17201-17400] [17401-17600] [17601-17800] [17801-18000] [18001-18200] [18201-18400] [18401-18600] [18601-18800] [18801-19000] [19001-19200] [19201-19400] [19401-19600] [19601-19800] [19801-20000] [20001-20200] [20201-20400] [20401-20600] [20601-20800] [20801-21000] [21001-21200] [21201-21400] [21401-21600] [21601-21800] [21801-22000] [22001-22200] [22201-22400] [22401-22600] [22601-22800] [22801-23000] [23001-23200] [23201-23400] [23401-23600] [23601-23800] [23801-24000] [24001-24200] [24201-24400] [24401-24600] [24601-24800] [24801-25000] [25001-25200] [25201-25400] [25401-25600] [25601-25800] [25801-26000] [26001-26200] [26201-26400] [26401-26600] [26601-26800] [26801-27000] [27001-27200] [27201-27400] [27401-27600] [27601-27800] [27801-28000] [28001-28200] [28201-28400] [28401-28600] [28601-28800] [28801-29000] [29001-29200] [29201-29400] [29401-29600] [29601-29800] [29801-30000] [30001-30200] [30201-30400] [30401-30600] [30601-30800] [30801-31000] [31001-31200] [31201-31400] [31401-31600] [31601-31800] [31801-32000] [32001-32200] [32201-32400] [32401-32600] [32601-32800] [32801-33000] [33001-33200] [33201-33400] [33401-33600] [33601-33800] [33801-34000] [34001-34200] [34201-34400] [34401-34600] [34601-34800] [34801-35000] [35001-35200] [35201-35400] [35401-35600] [35601-35800] [35801-36000] [36001-36200] [36201-36400] [36401-36600] [36601-36800] [36801-37000] [37001-37200] [37201-37400] [37401-37600] [37601-37800] [37801-38000] [38001-38200] [38201-38400] [38401-38600] [38601-38800] [38801-39000] [39001-39200] [39201-39400] [39401-39600] [39601-39800] [39801-40000] [40001-40200] [40201-40400] [40401-40600] [40601-40800] [40801-41000] [41001-41200] [41201-41400] [41401-41600] [41601-41800] [41801-42000] [42001-42200] [42201-42400] [42401-42600] [42601-42800] [42801-43000] [43001-43200] [43201-43400] [43401-43600] [43601-43800] [43801-44000] [44001-44200] [44201-44400] [44401-44600] [44601-44800] [44801-45000] [45001-45200] [45201-45400] [45401-45600] [45601-45800] [45801-46000] [46001-46200] [46201-46400] [46401-46600] [46601-46800] [46801-47000] [47001-47200] [47201-47400] [47401-47600] [47601-47800] [47801-48000] [48001-48200] [48201-48400] [48401-48600] [48601-48800] [48801-49000] [49001-49200] [49201-49400] [49401-49600] [49601-49800] [49801-50000] [50001-50200] [50201-50400] [50401-50600] [50601-50741]